createdAt,value
2022-10-14T00:01:05.466Z,22.63
2022-10-14T00:03:33.317Z,22.70
2022-10-14T00:06:01.066Z,22.70
2022-10-14T00:08:28.746Z,22.60
2022-10-14T00:10:56.402Z,23.10
2022-10-14T00:13:24.227Z,23.60
2022-10-14T00:15:53.228Z,24.70
2022-10-14T00:18:20.895Z,23.63
2022-10-14T00:20:55.762Z,22.67
2022-10-14T00:23:23.582Z,22.33
2022-10-14T00:25:51.400Z,22.80
2022-10-14T00:28:19.302Z,22.97
2022-10-14T00:30:56.420Z,22.17
2022-10-14T00:33:25.210Z,22.80
2022-10-14T00:35:57.091Z,23.47
2022-10-14T00:38:24.815Z,22.53
2022-10-14T00:40:52.656Z,22.53
2022-10-14T00:43:21.209Z,22.33
2022-10-14T00:45:48.907Z,22.10
2022-10-14T00:48:18.981Z,23.00
2022-10-14T00:50:49.035Z,23.23
2022-10-14T00:53:17.498Z,22.70
2022-10-14T00:55:45.229Z,23.20
2022-10-14T00:58:13.007Z,22.20
2022-10-14T01:00:41.121Z,21.53
2022-10-14T01:03:10.491Z,21.40
2022-10-14T01:05:53.475Z,23.07
2022-10-14T01:08:28.533Z,23.07
2022-10-14T01:11:03.150Z,22.43
2022-10-14T01:13:35.133Z,21.90
2022-10-14T01:16:15.746Z,22.30
2022-10-14T01:18:57.630Z,22.37
2022-10-14T01:21:29.869Z,22.60
2022-10-14T01:24:32.393Z,24.17
2022-10-14T01:27:12.628Z,23.17
2022-10-14T01:30:08.927Z,23.93
2022-10-14T01:32:44.344Z,21.63
2022-10-14T01:35:18.982Z,24.07
2022-10-14T01:37:53.171Z,23.63
2022-10-14T01:40:27.448Z,24.87
2022-10-14T01:42:56.606Z,24.53
2022-10-14T01:45:29.907Z,24.17
2022-10-14T01:47:59.766Z,24.57
2022-10-14T01:50:30.175Z,25.77
2022-10-14T01:53:02.616Z,26.73
2022-10-14T01:55:36.578Z,26.73
2022-10-14T01:58:06.664Z,25.10
2022-10-14T02:00:35.733Z,24.57
2022-10-14T02:03:03.515Z,25.00
2022-10-14T02:05:39.201Z,24.97
2022-10-14T02:08:12.947Z,26.03
2022-10-14T02:11:01.907Z,25.83
2022-10-14T02:13:50.318Z,27.60
2022-10-14T02:16:27.802Z,24.83
2022-10-14T02:19:02.440Z,26.50
2022-10-14T02:21:34.910Z,26.77
2022-10-14T02:24:07.483Z,26.90
2022-10-14T02:26:37.065Z,28.20
2022-10-14T02:29:06.476Z,28.83
2022-10-14T02:31:36.875Z,29.03
2022-10-14T02:34:08.247Z,27.10
2022-10-14T02:36:36.952Z,28.27
2022-10-14T02:39:07.523Z,26.67
2022-10-14T02:41:38.582Z,26.87
2022-10-14T02:44:06.887Z,28.13
2022-10-14T02:46:36.911Z,30.60
2022-10-14T02:49:04.589Z,28.73
2022-10-14T02:51:32.225Z,31.70
2022-10-14T02:54:01.796Z,28.63
2022-10-14T02:56:29.500Z,30.93
2022-10-14T02:58:57.176Z,33.07
2022-10-14T03:01:24.920Z,28.70
2022-10-14T03:03:54.008Z,28.63
2022-10-14T03:06:21.657Z,30.80
2022-10-14T03:08:49.333Z,30.87
2022-10-14T03:11:16.985Z,30.53
2022-10-14T03:13:44.636Z,28.20
2022-10-14T03:16:12.380Z,31.13
2022-10-14T03:18:40.063Z,30.87
2022-10-14T03:21:09.101Z,29.97
2022-10-14T03:23:36.769Z,35.73
2022-10-14T03:26:04.491Z,31.30
2022-10-14T03:28:32.267Z,30.30
2022-10-14T03:30:59.942Z,32.27
2022-10-14T03:33:29.823Z,33.23
2022-10-14T03:36:00.797Z,31.53
2022-10-14T03:38:29.818Z,30.50
2022-10-14T03:40:57.794Z,32.47
2022-10-14T03:43:25.560Z,33.80
2022-10-14T03:45:53.223Z,32.00
2022-10-14T03:48:21.287Z,37.43
2022-10-14T03:50:49.216Z,33.17
2022-10-14T03:53:16.920Z,33.30
2022-10-14T03:55:46.041Z,33.70
2022-10-14T03:58:13.770Z,33.50
2022-10-14T04:00:41.508Z,34.07
2022-10-14T04:03:09.250Z,31.53
2022-10-14T04:05:37.079Z,33.27
2022-10-14T04:08:04.876Z,32.33
2022-10-14T04:10:32.547Z,33.10
2022-10-14T04:13:01.762Z,32.07
2022-10-14T04:15:29.504Z,33.33
2022-10-14T04:17:57.677Z,31.30
2022-10-14T04:20:25.392Z,31.33
2022-10-14T04:22:53.038Z,32.37
2022-10-14T04:25:20.822Z,30.43
2022-10-14T04:27:48.463Z,35.93
2022-10-14T04:30:17.900Z,34.00
2022-10-14T04:32:46.319Z,32.23
2022-10-14T04:35:14.058Z,33.43
2022-10-14T04:37:41.959Z,33.27
2022-10-14T04:40:10.255Z,39.37
2022-10-14T04:42:37.968Z,34.40
2022-10-14T04:45:06.448Z,37.57
2022-10-14T04:47:35.459Z,36.97
2022-10-14T04:50:03.501Z,37.27
2022-10-14T04:52:31.657Z,33.70
2022-10-14T04:54:59.310Z,34.30
2022-10-14T04:57:26.945Z,33.97
2022-10-14T04:59:54.592Z,34.97
2022-10-14T05:02:22.478Z,38.23
2022-10-14T05:04:51.789Z,33.90
2022-10-14T05:07:19.458Z,35.83
2022-10-14T05:09:49.748Z,34.83
2022-10-14T05:12:19.287Z,33.43
2022-10-14T05:14:47.274Z,33.97
2022-10-14T05:17:14.956Z,33.50
2022-10-14T05:19:42.633Z,30.83
2022-10-14T05:22:11.662Z,31.60
2022-10-14T05:24:39.336Z,35.00
2022-10-14T05:27:07.356Z,32.87
2022-10-14T05:29:34.991Z,33.13
2022-10-14T05:32:02.656Z,34.73
2022-10-14T05:34:30.349Z,33.40
2022-10-14T05:36:58.019Z,38.10
2022-10-14T05:39:27.373Z,34.57
2022-10-14T05:41:55.100Z,32.73
2022-10-14T05:44:22.742Z,33.77
2022-10-14T05:46:50.440Z,36.17
2022-10-14T05:49:18.081Z,34.73
2022-10-14T05:51:45.711Z,33.00
2022-10-14T05:54:13.607Z,34.53
2022-10-14T05:56:42.757Z,33.10
2022-10-14T05:59:10.559Z,33.20
2022-10-14T06:01:38.526Z,34.97
2022-10-14T06:04:06.384Z,34.47
2022-10-14T06:06:34.024Z,33.47
2022-10-14T06:09:01.847Z,32.87
2022-10-14T06:11:29.566Z,33.53
2022-10-14T06:13:58.629Z,34.13
2022-10-14T06:16:26.311Z,34.57
2022-10-14T06:18:54.703Z,32.70
2022-10-14T06:21:22.798Z,35.77
2022-10-14T06:23:50.665Z,33.77
2022-10-14T06:26:18.378Z,33.80
2022-10-14T06:28:46.304Z,32.57
2022-10-14T06:31:15.465Z,37.23
2022-10-14T06:33:44.104Z,30.50
2022-10-14T06:36:12.220Z,32.40
2022-10-14T06:38:40.296Z,35.07
2022-10-14T06:41:08.093Z,32.97
2022-10-14T06:43:39.958Z,34.00
2022-10-14T06:46:07.996Z,33.57
2022-10-14T06:48:38.404Z,30.60
2022-10-14T06:51:06.229Z,29.67
2022-10-14T06:53:35.048Z,29.70
2022-10-14T06:56:05.223Z,30.73
2022-10-14T06:58:33.993Z,31.17
2022-10-14T07:01:05.306Z,29.47
2022-10-14T07:03:36.323Z,28.67
2022-10-14T07:06:06.330Z,30.57
2022-10-14T07:08:34.163Z,26.57
2022-10-14T07:11:01.897Z,28.17
2022-10-14T07:13:29.916Z,29.07
2022-10-14T07:15:57.595Z,27.43
2022-10-14T07:18:25.441Z,27.43
2022-10-14T07:20:53.733Z,26.90
2022-10-14T07:26:14.903Z,26.10
2022-10-14T07:28:42.701Z,27.30
2022-10-14T07:31:13.094Z,26.30
2022-10-14T07:33:41.689Z,25.93
2022-10-14T07:36:11.206Z,26.57
2022-10-14T07:38:40.683Z,26.30
2022-10-14T07:41:16.855Z,25.17
2022-10-14T07:43:45.232Z,24.70
2022-10-14T07:46:13.317Z,26.53
2022-10-14T07:48:56.155Z,25.37
2022-10-14T07:54:21.178Z,27.80
2022-10-14T07:56:49.991Z,30.70
2022-10-14T07:59:18.676Z,27.57
2022-10-14T08:01:47.994Z,26.63
2022-10-14T08:04:15.917Z,29.47
2022-10-14T08:06:44.065Z,25.90
2022-10-14T08:09:13.539Z,28.60
2022-10-14T08:11:44.502Z,27.07
2022-10-14T08:14:12.319Z,28.50
2022-10-14T08:16:40.422Z,28.20
2022-10-14T08:19:13.746Z,27.23
2022-10-14T08:21:42.613Z,30.17
2022-10-14T08:24:10.989Z,29.23
2022-10-14T08:26:40.663Z,27.97
2022-10-14T08:29:12.228Z,29.07
2022-10-14T08:31:39.886Z,31.03
2022-10-14T08:34:07.625Z,29.67
2022-10-14T08:36:35.283Z,31.23
2022-10-14T08:39:03.479Z,31.90
2022-10-14T08:41:56.822Z,32.83
2022-10-14T08:44:28.493Z,34.33
2022-10-14T08:46:59.097Z,33.77
2022-10-14T08:49:31.412Z,35.60
2022-10-14T08:52:03.759Z,31.80
2022-10-14T08:54:37.813Z,35.13
2022-10-14T08:57:07.306Z,35.77
2022-10-14T08:59:41.870Z,33.27
2022-10-14T09:02:30.843Z,35.30
2022-10-14T09:05:02.054Z,38.40
2022-10-14T09:07:31.632Z,39.87
2022-10-14T09:10:03.583Z,38.47
2022-10-14T09:12:35.092Z,37.53
2022-10-14T09:15:17.911Z,37.17
2022-10-14T09:17:51.259Z,43.97
2022-10-14T09:20:22.224Z,40.97
2022-10-14T09:23:01.882Z,42.37
2022-10-14T09:25:33.713Z,43.00
2022-10-14T09:28:01.466Z,42.30
2022-10-14T09:30:36.384Z,39.60
2022-10-14T09:33:06.382Z,42.07
2022-10-14T09:35:39.766Z,41.23
2022-10-14T09:38:07.747Z,41.00
2022-10-14T09:40:37.618Z,40.53
2022-10-14T09:43:16.205Z,38.20
2022-10-14T09:45:58.503Z,40.10
2022-10-14T09:48:33.511Z,42.87
2022-10-14T09:51:04.131Z,37.83
2022-10-14T09:53:34.230Z,36.40
2022-10-14T09:56:05.193Z,34.07
2022-10-14T09:58:36.893Z,33.90
2022-10-14T10:01:12.780Z,31.30
2022-10-14T10:03:41.218Z,29.13
2022-10-14T10:06:11.861Z,30.30
2022-10-14T10:08:41.255Z,32.03
2022-10-14T10:11:13.686Z,31.87
2022-10-14T10:13:44.602Z,30.53
2022-10-14T10:16:25.203Z,27.83
2022-10-14T10:18:55.200Z,27.40
2022-10-14T10:21:25.733Z,26.73
2022-10-14T10:23:56.414Z,28.87
2022-10-14T10:26:30.796Z,27.07
2022-10-14T10:28:59.890Z,27.83
2022-10-14T10:32:06.530Z,27.10
2022-10-14T10:35:06.230Z,28.70
2022-10-14T10:37:42.401Z,27.53
2022-10-14T10:40:24.947Z,26.57
2022-10-14T10:43:20.084Z,28.70
2022-10-14T10:46:01.807Z,29.83
2022-10-14T10:48:39.981Z,26.30
2022-10-14T10:51:12.063Z,25.27
2022-10-14T10:53:51.413Z,25.07
2022-10-14T10:56:31.357Z,23.70
2022-10-14T10:59:14.503Z,23.80
2022-10-14T11:01:50.511Z,23.17
2022-10-14T11:04:46.556Z,23.67
2022-10-14T11:07:39.102Z,24.43
2022-10-14T11:10:36.604Z,25.70
2022-10-14T11:13:22.880Z,23.33
2022-10-14T11:15:58.258Z,23.23
2022-10-14T11:18:37.489Z,22.80
2022-10-14T11:21:18.554Z,22.77
2022-10-14T11:23:59.699Z,20.37
2022-10-14T11:27:03.659Z,19.63
2022-10-14T11:29:46.328Z,17.97
2022-10-14T11:32:23.537Z,17.17
2022-10-14T11:35:06.871Z,18.00
2022-10-14T11:37:48.075Z,15.73
2022-10-14T11:40:24.131Z,17.17
2022-10-14T11:43:04.359Z,14.97
2022-10-14T11:45:46.763Z,15.57
2022-10-14T11:48:27.797Z,15.97
2022-10-14T11:51:02.702Z,15.63
2022-10-14T11:53:44.357Z,15.57
2022-10-14T11:56:24.191Z,15.20
2022-10-14T11:58:54.242Z,16.17
2022-10-14T12:01:34.214Z,15.40
2022-10-14T12:04:11.817Z,16.10
2022-10-14T12:06:44.847Z,15.50
2022-10-14T12:09:23.078Z,16.10
2022-10-14T12:11:55.129Z,15.17
2022-10-14T12:14:30.962Z,15.53
2022-10-14T12:17:01.749Z,14.57
2022-10-14T12:19:30.798Z,15.17
2022-10-14T12:22:06.963Z,15.00
2022-10-14T12:24:40.075Z,15.50
2022-10-14T12:27:11.671Z,16.53
2022-10-14T12:29:43.763Z,15.90
2022-10-14T12:32:25.806Z,16.23
2022-10-14T12:34:54.820Z,16.07
2022-10-14T12:37:43.770Z,16.40
2022-10-14T12:40:28.575Z,15.07
2022-10-14T12:43:02.679Z,14.90
2022-10-14T12:45:32.789Z,17.33
2022-10-14T12:48:07.798Z,15.97
2022-10-14T12:50:38.760Z,15.40
2022-10-14T12:53:16.938Z,14.37
2022-10-14T12:55:51.970Z,14.07
2022-10-14T12:58:26.515Z,13.43
2022-10-14T13:00:56.428Z,13.07
2022-10-14T13:03:28.082Z,12.90
2022-10-14T13:06:43.777Z,13.90
2022-10-14T13:09:41.668Z,13.77
2022-10-14T13:12:42.097Z,14.53
2022-10-14T13:15:52.408Z,14.47
2022-10-14T13:18:54.726Z,13.80
2022-10-14T13:21:31.555Z,13.77
2022-10-14T13:24:02.667Z,12.57
2022-10-14T13:26:39.544Z,12.67
2022-10-14T13:29:18.532Z,13.70
2022-10-14T13:31:55.615Z,12.67
2022-10-14T13:34:49.923Z,13.13
2022-10-14T13:37:31.341Z,12.23
2022-10-14T13:40:06.371Z,11.80
2022-10-14T13:42:40.394Z,12.17
2022-10-14T13:45:13.595Z,12.23
2022-10-14T13:47:43.370Z,12.43
2022-10-14T13:50:13.964Z,12.47
2022-10-14T13:52:41.885Z,11.60
2022-10-14T13:55:16.383Z,12.90
2022-10-14T13:58:07.862Z,12.57
2022-10-14T14:00:42.279Z,12.37
2022-10-14T14:03:21.142Z,12.00
2022-10-14T14:05:51.217Z,12.70
2022-10-14T14:08:41.811Z,15.10
2022-10-14T14:11:16.706Z,12.10
2022-10-14T14:13:55.863Z,12.07
2022-10-14T14:16:30.844Z,12.30
2022-10-14T14:19:14.117Z,13.23
2022-10-14T14:21:43.212Z,12.10
2022-10-14T14:24:19.971Z,11.20
2022-10-14T14:26:47.765Z,11.30
2022-10-14T14:29:18.813Z,10.90
2022-10-14T14:32:05.412Z,9.97
2022-10-14T14:34:36.771Z,10.00
2022-10-14T14:39:59.629Z,10.57
2022-10-14T14:42:28.879Z,10.33
2022-10-14T14:45:00.011Z,12.07
2022-10-14T14:47:29.819Z,10.27
2022-10-14T14:50:18.260Z,10.13
2022-10-14T14:52:49.735Z,10.40
2022-10-14T14:55:37.059Z,11.90
2022-10-14T14:58:07.940Z,10.63
2022-10-14T15:00:35.623Z,10.97
2022-10-14T15:03:04.971Z,10.70
2022-10-14T15:05:32.917Z,10.87
2022-10-14T15:08:01.956Z,11.23
2022-10-14T15:10:31.620Z,10.40
2022-10-14T15:13:02.565Z,13.37
2022-10-14T15:15:33.189Z,10.93
2022-10-14T15:18:15.253Z,11.07
2022-10-14T15:20:44.176Z,10.27
2022-10-14T15:23:42.275Z,12.10
2022-10-14T15:26:30.628Z,10.43
2022-10-14T15:29:15.579Z,13.33
2022-10-14T15:31:46.127Z,12.17
2022-10-14T15:34:20.394Z,12.73
2022-10-14T15:36:51.616Z,12.10
2022-10-14T15:39:21.424Z,14.07
2022-10-14T15:41:49.763Z,13.23
2022-10-14T15:44:17.731Z,13.30
2022-10-14T15:47:05.243Z,13.17
2022-10-14T15:49:37.083Z,12.10
2022-10-14T15:52:04.855Z,12.63
2022-10-14T15:54:33.910Z,11.37
2022-10-14T15:57:03.409Z,12.20
2022-10-14T15:59:31.870Z,12.27
2022-10-14T16:01:59.833Z,10.43
2022-10-14T16:04:27.965Z,11.77
2022-10-14T16:06:57.628Z,10.80
2022-10-14T16:09:27.680Z,10.17
2022-10-14T16:11:59.444Z,10.23
2022-10-14T16:14:28.047Z,10.40
2022-10-14T16:16:56.135Z,10.67
2022-10-14T16:19:23.851Z,9.50
2022-10-14T16:21:51.491Z,11.20
2022-10-14T16:24:21.130Z,10.33
2022-10-14T16:26:49.816Z,9.77
2022-10-14T16:29:19.081Z,10.30
2022-10-14T16:31:49.268Z,10.90
2022-10-14T16:34:17.059Z,9.50
2022-10-14T16:36:45.327Z,10.20
2022-10-14T16:39:14.286Z,9.57
2022-10-14T16:41:42.324Z,10.30
2022-10-14T16:44:24.201Z,9.57
2022-10-14T16:47:11.801Z,10.43
2022-10-14T16:49:40.501Z,9.27
2022-10-14T16:52:08.767Z,9.63
2022-10-14T16:54:36.623Z,10.20
2022-10-14T16:57:04.859Z,11.50
2022-10-14T16:59:32.659Z,11.27
2022-10-14T17:02:02.000Z,9.77
2022-10-14T17:04:29.790Z,9.67
2022-10-14T17:06:57.445Z,10.20
2022-10-14T17:11:58.042Z,9.30
2022-10-14T17:14:25.948Z,9.67
2022-10-14T17:16:53.555Z,10.53
2022-10-14T17:19:23.890Z,9.80
2022-10-14T17:21:51.617Z,10.40
2022-10-14T17:24:19.304Z,10.80
2022-10-14T17:26:47.112Z,11.20
2022-10-14T17:29:15.004Z,10.23
2022-10-14T17:31:42.696Z,11.30
2022-10-14T17:34:10.813Z,10.80
2022-10-14T17:36:41.571Z,11.13
2022-10-14T17:39:16.440Z,11.40
2022-10-14T17:41:49.093Z,12.03
2022-10-14T17:44:16.759Z,11.53
2022-10-14T17:46:44.484Z,10.90
2022-10-14T17:49:13.120Z,11.73
2022-10-14T17:51:43.214Z,12.07
2022-10-14T17:54:14.031Z,12.67
2022-10-14T17:56:43.045Z,12.20
2022-10-14T17:59:14.141Z,12.03
2022-10-14T18:04:29.777Z,12.83
2022-10-14T18:06:59.219Z,12.37
2022-10-14T18:09:26.945Z,13.00
2022-10-14T18:12:08.398Z,12.93
2022-10-14T18:14:36.806Z,14.30
2022-10-14T18:17:05.165Z,14.47
2022-10-14T18:19:32.933Z,13.57
2022-10-14T18:22:02.562Z,13.40
2022-10-14T18:24:30.383Z,13.77
2022-10-14T18:26:58.079Z,13.23
2022-10-14T18:29:25.937Z,13.80
2022-10-14T18:31:53.601Z,12.67
2022-10-14T18:34:22.370Z,13.63
2022-10-14T18:36:50.237Z,12.53
2022-10-14T18:39:20.198Z,14.50
2022-10-14T18:41:47.991Z,12.47
2022-10-14T18:44:15.733Z,12.70
2022-10-14T18:46:43.793Z,11.83
2022-10-14T18:49:12.379Z,11.63
2022-10-14T18:51:42.021Z,12.80
2022-10-14T18:54:13.270Z,12.07
2022-10-14T18:56:44.483Z,11.63
2022-10-14T18:59:14.453Z,11.17
2022-10-14T19:01:43.278Z,10.90
2022-10-14T19:04:13.360Z,12.33
2022-10-14T19:06:41.718Z,11.47
2022-10-14T19:09:12.534Z,11.17
2022-10-14T19:11:41.214Z,10.87
2022-10-14T19:14:10.806Z,11.90
2022-10-14T19:16:40.089Z,10.90
2022-10-14T19:19:11.760Z,12.17
2022-10-14T19:21:39.819Z,11.13
2022-10-14T19:24:09.053Z,11.50
2022-10-14T19:26:39.130Z,12.00
2022-10-14T19:29:11.476Z,12.03
2022-10-14T19:31:41.808Z,13.13
2022-10-14T19:34:13.069Z,10.17
2022-10-14T19:36:41.142Z,9.90
2022-10-14T19:39:11.165Z,11.83
2022-10-14T19:41:43.094Z,13.67
2022-10-14T19:44:12.570Z,12.87
2022-10-14T19:46:42.168Z,10.83
2022-10-14T19:49:12.748Z,10.70
2022-10-14T19:51:40.821Z,11.13
2022-10-14T19:54:08.688Z,12.23
2022-10-14T19:56:36.350Z,9.93
2022-10-14T19:59:04.044Z,9.77
2022-10-14T20:01:32.167Z,9.97
2022-10-14T20:04:02.842Z,11.53
2022-10-14T20:06:33.651Z,10.43
2022-10-14T20:09:01.832Z,9.83
2022-10-14T20:11:30.091Z,10.83
2022-10-14T20:13:58.104Z,9.40
2022-10-14T20:16:26.991Z,9.30
2022-10-14T20:18:55.190Z,9.57
2022-10-14T20:21:24.816Z,9.70
2022-10-14T20:23:52.544Z,9.07
2022-10-14T20:26:22.304Z,9.60
2022-10-14T20:28:51.247Z,9.10
2022-10-14T20:31:21.118Z,9.53
2022-10-14T20:33:49.500Z,8.70
2022-10-14T20:36:18.789Z,9.00
2022-10-14T20:38:48.373Z,9.83
2022-10-14T20:41:18.717Z,8.20
2022-10-14T20:43:47.275Z,9.00
2022-10-14T20:46:16.112Z,8.20
2022-10-14T20:48:44.016Z,8.43
2022-10-14T20:51:14.301Z,10.77
2022-10-14T20:53:42.011Z,8.50
2022-10-14T20:56:13.950Z,8.33
2022-10-14T20:58:42.036Z,8.77
2022-10-14T21:01:12.839Z,8.37
2022-10-14T21:03:41.347Z,7.70
2022-10-14T21:06:11.039Z,7.73
2022-10-14T21:08:38.862Z,7.87
2022-10-14T21:11:12.013Z,7.63
2022-10-14T21:13:46.600Z,7.57
2022-10-14T21:16:16.374Z,7.20
2022-10-14T21:18:47.934Z,7.30
2022-10-14T21:21:16.975Z,7.87
2022-10-14T21:23:45.252Z,7.40
2022-10-14T21:26:12.948Z,7.97
2022-10-14T21:28:40.637Z,8.70
2022-10-14T21:31:12.764Z,7.83
2022-10-14T21:33:42.697Z,7.90
2022-10-14T21:36:12.264Z,7.73
2022-10-14T21:38:40.756Z,7.47
2022-10-14T21:41:09.201Z,7.47
2022-10-14T21:43:38.284Z,7.53
2022-10-14T21:46:07.936Z,8.27
2022-10-14T21:48:37.177Z,7.37
2022-10-14T21:51:06.886Z,7.00
2022-10-14T21:53:36.248Z,7.63
2022-10-14T21:56:04.272Z,7.03
2022-10-14T21:58:32.385Z,7.13
2022-10-14T22:01:05.872Z,7.10
2022-10-14T22:03:34.660Z,7.23
2022-10-14T22:08:41.585Z,7.07
2022-10-14T22:11:17.301Z,7.50
2022-10-14T22:13:45.567Z,7.63
2022-10-14T22:16:13.892Z,7.93
2022-10-14T22:18:43.482Z,8.33
2022-10-14T22:21:12.604Z,8.40
2022-10-14T22:23:40.503Z,7.57
2022-10-14T22:26:10.152Z,7.80
2022-10-14T22:28:38.543Z,7.97
2022-10-14T22:31:07.260Z,9.70
2022-10-14T22:33:36.125Z,7.80
2022-10-14T22:36:08.392Z,7.70
2022-10-14T22:38:38.280Z,7.40
2022-10-14T22:41:07.601Z,8.53
2022-10-14T22:43:35.911Z,7.87
2022-10-14T22:46:05.257Z,7.33
2022-10-14T22:48:33.708Z,7.80
2022-10-14T22:51:03.701Z,8.20
2022-10-14T22:53:31.958Z,7.73
2022-10-14T22:56:01.270Z,7.30
2022-10-14T22:58:29.569Z,7.93
2022-10-14T23:00:57.530Z,7.53
2022-10-14T23:03:25.544Z,9.23
2022-10-14T23:05:53.219Z,9.10
2022-10-14T23:08:21.230Z,7.63
2022-10-14T23:10:48.908Z,7.47
2022-10-14T23:13:17.975Z,6.80
2022-10-14T23:15:55.940Z,7.13
2022-10-14T23:18:23.903Z,7.13
2022-10-14T23:20:52.154Z,8.50
2022-10-14T23:23:19.941Z,7.50
2022-10-14T23:25:47.636Z,8.17
2022-10-14T23:28:15.600Z,7.67
2022-10-14T23:30:44.767Z,7.77
2022-10-14T23:33:12.623Z,8.07
2022-10-14T23:35:40.472Z,7.80
2022-10-14T23:38:08.128Z,10.37
2022-10-14T23:40:35.822Z,7.73
2022-10-14T23:43:03.490Z,8.53
2022-10-14T23:45:31.223Z,7.33
2022-10-14T23:48:00.271Z,8.20
2022-10-14T23:50:27.941Z,8.27
2022-10-14T23:52:55.591Z,8.00
2022-10-14T23:55:23.285Z,8.00
2022-10-14T23:57:50.963Z,8.30
